Time;durP1;ratioP1;P1;durP2;ratioP2;P2;SDS_P1;SDS_P2;PMS_P1;PMS_P2;Temp;Humidity;BMP_temperature;BMP_pressure;BME280_temperature;BME280_humidity;BME280_pressure;Samples;Min_cycle;Max_cycle;Signal;HPM_P1;HPM_P2
2022/05/20 00:01:34;;;;;;;0.80;0.50;;;19.60;99.90;;;;;;5011457;28;20211;-70
2022/05/20 00:03:59;;;;;;;0.93;0.83;;;19.60;99.90;;;;;;5012934;28;20518;-70
2022/05/20 00:06:25;;;;;;;1.50;0.80;;;19.60;99.90;;;;;;5011809;28;20633;-70
2022/05/20 00:08:50;;;;;;;0.80;0.60;;;19.60;99.90;;;;;;5012810;28;20188;-70
2022/05/20 00:11:16;;;;;;;0.80;0.50;;;19.60;99.90;;;;;;5012613;28;20694;-70
2022/05/20 00:13:43;;;;;;;0.80;0.50;;;19.60;99.90;;;;;;5012708;28;20227;-70
2022/05/20 00:16:08;;;;;;;0.80;0.60;;;19.60;99.90;;;;;;5012708;28;20156;-70
2022/05/20 00:18:34;;;;;;;0.80;0.53;;;19.60;99.90;;;;;;5012568;28;20419;-70
2022/05/20 00:21:00;;;;;;;0.80;0.70;;;19.60;99.90;;;;;;5012401;28;20554;-70
2022/05/20 00:23:26;;;;;;;1.10;0.60;;;19.60;99.90;;;;;;5012572;28;20172;-71
2022/05/20 00:25:51;;;;;;;0.87;0.67;;;19.60;99.90;;;;;;5012755;28;20172;-70
2022/05/20 00:28:20;;;;;;;0.80;0.50;;;19.60;99.90;;;;;;5012500;28;20594;-70
2022/05/20 00:30:47;;;;;;;0.80;0.50;;;19.60;99.90;;;;;;5010856;28;20176;-70
2022/05/20 00:33:13;;;;;;;0.80;0.50;;;19.60;99.90;;;;;;5012046;28;20441;-70
2022/05/20 00:35:39;;;;;;;0.80;0.50;;;19.60;99.90;;;;;;5011148;28;20415;-70
2022/05/20 00:38:05;;;;;;;0.80;0.50;;;19.60;99.90;;;;;;5012496;28;20396;-70
2022/05/20 00:40:33;;;;;;;0.80;0.60;;;19.60;99.90;;;;;;5011058;28;20513;-70
2022/05/20 00:43:13;;;;;;;0.80;0.50;;;19.60;99.90;;;;;;5012302;28;20439;-70
2022/05/20 00:45:41;;;;;;;0.80;0.50;;;19.60;99.90;;;;;;5011241;28;20407;-70
2022/05/20 00:48:07;;;;;;;0.80;0.50;;;19.50;99.90;;;;;;5012230;28;20403;-70
2022/05/20 00:50:34;;;;;;;0.80;0.60;;;19.50;99.90;;;;;;5012030;28;20952;-70
2022/05/20 00:53:00;;;;;;;0.80;0.60;;;19.50;99.90;;;;;;5010819;28;20769;-69
2022/05/20 00:55:26;;;;;;;0.80;0.50;;;19.50;99.90;;;;;;5012063;28;20443;-71
2022/05/20 00:58:07;;;;;;;1.00;0.73;;;19.50;99.90;;;;;;5012074;28;20407;-70
2022/05/20 01:00:39;;;;;;;0.80;0.60;;;19.50;99.90;;;;;;5010630;28;20467;-70
2022/05/20 01:03:08;;;;;;;0.80;0.60;;;19.50;99.90;;;;;;5012130;28;20446;-70
2022/05/20 01:05:43;;;;;;;0.80;0.60;;;19.50;99.90;;;;;;5012162;28;20453;-70
2022/05/20 01:08:13;;;;;;;0.90;0.67;;;19.50;99.90;;;;;;5012014;28;20497;-70
2022/05/20 01:10:38;;;;;;;1.10;0.70;;;19.50;99.90;;;;;;5011921;28;20423;-70
2022/05/20 01:13:04;;;;;;;0.80;0.60;;;19.50;99.90;;;;;;5012027;28;20469;-70
2022/05/20 01:15:30;;;;;;;0.80;0.60;;;19.40;99.90;;;;;;5010825;28;20207;-70
2022/05/20 01:17:57;;;;;;;0.83;0.63;;;19.40;99.90;;;;;;5011831;28;20565;-70
2022/05/20 01:20:27;;;;;;;0.97;0.60;;;19.40;99.90;;;;;;5011670;28;20234;-70
2022/05/20 01:23:06;;;;;;;0.90;0.60;;;19.40;99.90;;;;;;5011979;28;20924;-70
2022/05/20 01:25:32;;;;;;;1.13;1.03;;;19.40;99.90;;;;;;5011939;28;20446;-70
2022/05/20 01:27:58;;;;;;;1.67;0.80;;;19.40;99.90;;;;;;5011759;28;20439;-70
2022/05/20 01:30:27;;;;;;;0.80;0.60;;;19.30;99.90;;;;;;5010254;28;20565;-70
2022/05/20 01:32:53;;;;;;;1.27;0.60;;;19.30;99.90;;;;;;5011817;28;20411;-70
2022/05/20 01:35:51;;;;;;;1.07;0.77;;;19.20;99.90;;;;;;5011827;28;20467;-70
2022/05/20 01:38:17;;;;;;;0.80;0.60;;;19.10;99.90;;;;;;5007338;28;20469;-70
2022/05/20 01:40:44;;;;;;;0.80;0.60;;;19.00;99.90;;;;;;5010230;28;20411;-70
2022/05/20 01:43:33;;;;;;;0.80;0.50;;;18.90;99.90;;;;;;5011770;28;20187;-70
2022/05/20 01:46:25;;;;;;;0.80;0.50;;;18.80;99.90;;;;;;5011710;28;20419;-70
2022/05/20 01:49:06;;;;;;;0.80;0.60;;;18.70;99.90;;;;;;5011641;28;20427;-70
2022/05/20 01:51:37;;;;;;;0.80;0.50;;;18.70;99.90;;;;;;5011506;28;20460;-70
2022/05/20 01:54:14;;;;;;;1.23;0.80;;;18.60;99.90;;;;;;5011589;28;20498;-70
2022/05/20 01:56:48;;;;;;;0.80;0.50;;;18.50;99.90;;;;;;5011715;28;20489;-70
2022/05/20 01:59:26;;;;;;;0.80;0.50;;;18.50;99.90;;;;;;5010361;28;20463;-70
2022/05/20 02:02:24;;;;;;;0.80;0.50;;;18.50;99.90;;;;;;5011505;28;20414;-70
2022/05/20 02:04:57;;;;;;;0.80;0.50;;;18.50;99.90;;;;;;5013915;28;20817;-70
2022/05/20 02:07:27;;;;;;;1.00;0.80;;;18.40;99.90;;;;;;5013700;28;20422;-70
2022/05/20 02:10:03;;;;;;;0.80;0.50;;;18.40;99.90;;;;;;5014266;28;20427;-70
2022/05/20 02:12:34;;;;;;;0.80;0.60;;;18.40;99.90;;;;;;5015052;28;20778;-70
2022/05/20 02:15:02;;;;;;;0.90;0.63;;;18.40;99.90;;;;;;5013881;28;20471;-70
2022/05/20 02:17:41;;;;;;;0.80;0.60;;;18.40;99.90;;;;;;5014806;28;20438;-70
2022/05/20 02:20:10;;;;;;;1.10;0.80;;;18.40;99.90;;;;;;5014655;28;20462;-70
2022/05/20 02:22:41;;;;;;;0.80;0.50;;;18.40;99.90;;;;;;5013651;28;20438;-70
2022/05/20 02:25:10;;;;;;;0.80;0.50;;;18.40;99.90;;;;;;5013414;28;20477;-70
2022/05/20 02:27:41;;;;;;;3.60;0.97;;;18.40;99.90;;;;;;5014780;28;20423;-70
2022/05/20 02:30:19;;;;;;;1.73;0.90;;;18.40;99.90;;;;;;5014310;28;20506;-70
2022/05/20 02:32:51;;;;;;;0.80;0.50;;;18.40;99.90;;;;;;5014722;28;20510;-70
2022/05/20 02:35:17;;;;;;;0.80;0.70;;;18.50;99.90;;;;;;5014470;28;20537;-70
2022/05/20 02:37:43;;;;;;;0.80;0.60;;;18.50;99.90;;;;;;5014628;28;20776;-70
2022/05/20 02:40:13;;;;;;;1.63;0.70;;;18.50;99.90;;;;;;5014154;28;20420;-70
2022/05/20 02:42:39;;;;;;;1.97;0.60;;;18.50;99.90;;;;;;5014542;28;20630;-70
2022/05/20 02:45:06;;;;;;;0.80;0.60;;;18.50;99.90;;;;;;5014372;28;20411;-70
2022/05/20 02:47:33;;;;;;;0.90;0.60;;;18.50;99.90;;;;;;5014318;28;20202;-70
2022/05/20 02:49:59;;;;;;;0.90;0.60;;;18.50;99.90;;;;;;5012796;28;20474;-70
2022/05/20 02:52:25;;;;;;;0.80;0.50;;;18.50;99.90;;;;;;5014363;28;20419;-70
2022/05/20 02:54:50;;;;;;;0.80;0.50;;;18.60;99.90;;;;;;5014059;28;21023;-70
2022/05/20 02:57:16;;;;;;;0.80;0.60;;;18.60;99.90;;;;;;5014260;28;20221;-70
2022/05/20 03:05:12;;;;;;;0.90;0.70;;;18.60;99.90;;;;;;5014005;28;20457;-70
2022/05/20 03:07:37;;;;;;;1.53;0.87;;;18.60;99.90;;;;;;5014049;28;20411;-69
2022/05/20 03:10:03;;;;;;;0.80;0.50;;;18.60;99.90;;;;;;5013602;28;20670;-70
2022/05/20 03:12:29;;;;;;;0.80;0.50;;;18.60;99.90;;;;;;5012646;28;20173;-70
2022/05/20 03:14:54;;;;;;;0.80;0.60;;;18.60;99.90;;;;;;5013274;28;20454;-69
2022/05/20 03:17:20;;;;;;;0.90;0.60;;;18.60;99.90;;;;;;5012422;28;20184;-70
2022/05/20 03:19:45;;;;;;;1.00;0.67;;;18.60;99.90;;;;;;5012292;28;20192;-70
2022/05/20 03:22:11;;;;;;;0.80;0.57;;;18.60;99.90;;;;;;5012386;28;20200;-70
2022/05/20 03:24:37;;;;;;;1.00;0.80;;;18.60;99.90;;;;;;5013458;28;20522;-69
2022/05/20 03:27:04;;;;;;;0.80;0.50;;;18.60;99.90;;;;;;5013410;28;20191;-70
2022/05/20 03:29:30;;;;;;;1.10;0.70;;;18.60;99.90;;;;;;5013412;28;20427;-70
2022/05/20 03:31:55;;;;;;;0.80;0.50;;;18.60;99.90;;;;;;5013207;28;20409;-75
2022/05/20 03:34:21;;;;;;;0.80;0.50;;;18.60;99.90;;;;;;5013400;28;20477;-69
2022/05/20 03:36:49;;;;;;;1.27;0.70;;;18.60;99.90;;;;;;5013396;28;20541;-70
2022/05/20 03:39:18;;;;;;;0.80;0.50;;;18.60;99.90;;;;;;5013402;28;20188;-70
2022/05/20 03:41:44;;;;;;;0.73;0.50;;;18.60;99.90;;;;;;5013070;28;20410;-69
2022/05/20 03:44:11;;;;;;;0.80;0.50;;;18.60;99.90;;;;;;5011979;28;20411;-70
2022/05/20 03:46:41;;;;;;;0.80;0.60;;;18.60;99.90;;;;;;5013205;28;20631;-69
2022/05/20 03:49:06;;;;;;;0.70;0.50;;;18.70;99.90;;;;;;5013200;28;20511;-70
2022/05/20 03:51:35;;;;;;;0.80;0.50;;;18.70;99.90;;;;;;5012890;28;20431;-69
2022/05/20 03:54:00;;;;;;;0.87;0.63;;;18.70;99.90;;;;;;5011846;28;20230;-69
2022/05/20 03:56:26;;;;;;;0.80;0.60;;;18.70;99.90;;;;;;5013300;28;20474;-70
2022/05/20 03:58:52;;;;;;;0.80;0.50;;;18.70;99.90;;;;;;5012961;28;20201;-70
2022/05/20 04:04:02;;;;;;;0.90;0.80;;;18.60;99.90;;;;;;5013034;28;20668;-69
2022/05/20 04:06:28;;;;;;;0.80;0.80;;;18.50;99.90;;;;;;5011623;28;20415;-70
2022/05/20 04:08:53;;;;;;;0.90;0.70;;;18.50;99.90;;;;;;5012842;28;20681;-70
2022/05/20 04:11:19;;;;;;;0.80;0.50;;;18.50;99.90;;;;;;5012608;28;20545;-70
2022/05/20 04:13:45;;;;;;;1.20;0.80;;;18.50;99.90;;;;;;5011151;28;20229;-70
2022/05/20 04:16:12;;;;;;;0.80;0.50;;;18.60;99.90;;;;;;5012769;28;20638;-69
2022/05/20 04:18:38;;;;;;;1.07;0.70;;;18.60;99.90;;;;;;5012554;28;20446;-69
2022/05/20 04:21:04;;;;;;;1.00;0.70;;;18.60;99.90;;;;;;5012480;28;20399;-70
2022/05/20 04:23:30;;;;;;;0.80;0.70;;;18.60;99.90;;;;;;5012720;28;20188;-70
2022/05/20 04:25:56;;;;;;;0.80;0.50;;;18.60;99.90;;;;;;5012512;28;20893;-70
2022/05/20 04:28:21;;;;;;;0.80;0.60;;;18.60;99.90;;;;;;5012143;28;20411;-70
2022/05/20 04:30:47;;;;;;;1.40;1.13;;;18.70;99.90;;;;;;5012323;28;20239;-70
2022/05/20 04:33:13;;;;;;;0.80;0.60;;;18.70;99.90;;;;;;5012441;28;20622;-69
2022/05/20 04:35:39;;;;;;;1.00;0.70;;;18.70;99.90;;;;;;5012447;28;20569;-69
2022/05/20 04:38:04;;;;;;;1.00;0.90;;;18.70;99.90;;;;;;5011119;28;20195;-70
2022/05/20 04:40:30;;;;;;;1.10;0.60;;;18.70;99.90;;;;;;5012074;28;20925;-70
2022/05/20 04:48:33;;;;;;;0.70;0.50;;;18.90;99.90;;;;;;4989150;28;20422;-70
2022/05/20 04:50:58;;;;;;;0.80;0.60;;;18.90;99.90;;;;;;5010845;28;20843;-69
2022/05/20 04:56:08;;;;;;;1.13;0.63;;;19.00;99.90;;;;;;5012335;28;20175;-70
2022/05/20 04:58:34;;;;;;;0.80;0.50;;;19.10;99.90;;;;;;5012024;28;20438;-70
2022/05/20 05:00:59;;;;;;;1.30;0.80;;;19.10;99.90;;;;;;5011134;28;20171;-70
2022/05/20 05:03:25;;;;;;;1.17;0.60;;;19.20;99.90;;;;;;5011818;28;20171;-70
2022/05/20 05:05:51;;;;;;;2.90;1.20;;;19.20;99.90;;;;;;5012189;28;20160;-70
2022/05/20 05:08:17;;;;;;;0.93;0.60;;;19.30;99.90;;;;;;5010639;28;20625;-69
2022/05/20 05:10:44;;;;;;;0.80;0.50;;;19.30;99.90;;;;;;5011862;28;20172;-70
2022/05/20 05:13:11;;;;;;;0.80;0.60;;;19.40;99.90;;;;;;5012183;28;20403;-70
2022/05/20 05:15:37;;;;;;;0.80;0.60;;;19.40;99.90;;;;;;5011551;28;20454;-70
2022/05/20 05:18:16;;;;;;;1.00;0.70;;;19.50;99.90;;;;;;5010595;28;20434;-69
2022/05/20 05:20:46;;;;;;;2.73;1.80;;;19.60;99.90;;;;;;5011771;28;20926;-69
2022/05/20 05:23:12;;;;;;;1.63;1.53;;;19.60;99.90;;;;;;5011938;28;20442;-69
2022/05/20 05:25:38;;;;;;;0.80;0.60;;;19.70;99.90;;;;;;5011908;28;20426;-69
2022/05/20 05:28:05;;;;;;;2.83;1.90;;;19.70;99.90;;;;;;5011973;28;20408;-70
2022/05/20 05:30:31;;;;;;;1.20;0.83;;;19.80;99.90;;;;;;5010200;28;20439;-70
2022/05/20 05:32:57;;;;;;;0.80;0.60;;;19.90;99.90;;;;;;5010961;28;20426;-69
2022/05/20 05:35:25;;;;;;;0.90;0.60;;;19.90;99.90;;;;;;5011753;28;20487;-69
2022/05/20 05:37:51;;;;;;;0.80;0.60;;;20.00;99.90;;;;;;5011879;28;20164;-70
2022/05/20 05:40:20;;;;;;;0.80;0.50;;;20.10;99.90;;;;;;5014599;28;20427;-69
2022/05/20 05:42:46;;;;;;;0.80;0.60;;;20.10;99.90;;;;;;5015488;28;20897;-69
2022/05/20 05:45:14;;;;;;;0.80;0.53;;;20.20;99.90;;;;;;5015640;28;20469;-69
2022/05/20 05:47:39;;;;;;;1.20;1.00;;;20.40;99.90;;;;;;5015617;28;20180;-69
2022/05/20 05:50:06;;;;;;;1.20;0.70;;;20.50;99.90;;;;;;5015227;28;20427;-70
2022/05/20 05:52:32;;;;;;;1.10;0.77;;;20.60;99.90;;;;;;5015490;28;20255;-70
2022/05/20 05:54:58;;;;;;;1.10;1.00;;;20.80;99.90;;;;;;5015290;28;20450;-70
2022/05/20 05:57:24;;;;;;;5.80;1.17;;;20.90;99.90;;;;;;5015347;28;20229;-70
2022/05/20 05:59:50;;;;;;;0.80;0.60;;;21.00;99.90;;;;;;5013887;28;20295;-70
2022/05/20 06:02:15;;;;;;;3.47;1.00;;;21.10;99.90;;;;;;5013704;28;20505;-70
2022/05/20 06:04:41;;;;;;;5.00;1.80;;;21.20;99.90;;;;;;5013889;28;20180;-70
2022/05/20 06:07:07;;;;;;;2.93;1.63;;;21.40;99.90;;;;;;5015148;28;20630;-70
2022/05/20 06:09:34;;;;;;;2.23;2.03;;;21.50;99.90;;;;;;5015016;28;20790;-70
2022/05/20 06:12:01;;;;;;;9.27;2.80;;;21.70;99.90;;;;;;5014666;28;20259;-70
2022/05/20 06:14:27;;;;;;;3.33;1.87;;;21.90;99.90;;;;;;5014839;28;20465;-70
2022/05/20 06:16:53;;;;;;;4.00;3.37;;;22.10;99.90;;;;;;5014847;28;20407;-70
2022/05/20 06:19:19;;;;;;;9.80;4.50;;;22.30;99.90;;;;;;5014920;28;20943;-70
2022/05/20 06:21:44;;;;;;;6.70;4.00;;;22.50;99.90;;;;;;5014586;28;20175;-70
2022/05/20 06:24:10;;;;;;;4.13;3.73;;;22.60;99.90;;;;;;5013623;28;20797;-70
2022/05/20 06:26:37;;;;;;;7.70;5.27;;;22.70;99.90;;;;;;5014643;28;20256;-70
2022/05/20 06:29:04;;;;;;;2.83;2.13;;;22.80;99.90;;;;;;5014820;28;20227;-70
2022/05/20 06:31:29;;;;;;;3.87;3.20;;;22.90;99.90;;;;;;5014438;28;20494;-70
2022/05/20 06:33:57;;;;;;;4.93;2.60;;;23.10;99.90;;;;;;5014563;28;20597;-69
2022/05/20 06:41:51;;;;;;;4.60;3.57;;;23.70;99.90;;;;;;5013958;28;20410;-70
2022/05/20 06:44:17;;;;;;;5.80;3.30;;;24.00;99.90;;;;;;5014490;28;20415;-70
2022/05/20 06:46:42;;;;;;;2.77;2.33;;;24.20;99.90;;;;;;5014434;28;20630;-70
2022/05/20 06:49:08;;;;;;;7.10;4.97;;;24.50;99.90;;;;;;5014006;28;20195;-70
2022/05/20 06:51:36;;;;;;;4.13;2.30;;;24.70;99.90;;;;;;5013906;28;20172;-70
2022/05/20 06:54:04;;;;;;;8.13;4.00;;;25.00;99.90;;;;;;5014142;28;20210;-70
2022/05/20 06:56:30;;;;;;;8.33;4.07;;;25.20;99.90;;;;;;5014097;28;20454;-70
2022/05/20 06:58:58;;;;;;;4.70;2.50;;;25.20;99.90;;;;;;5013910;28;20427;-70
2022/05/20 07:01:24;;;;;;;6.27;2.70;;;25.10;99.90;;;;;;5013810;28;20490;-69
2022/05/20 07:03:50;;;;;;;5.60;3.60;;;25.00;99.90;;;;;;5013944;28;20415;-69
2022/05/20 07:06:16;;;;;;;3.83;3.40;;;24.80;99.90;;;;;;5014024;28;20415;-70
2022/05/20 07:08:46;;;;;;;3.50;3.20;;;24.70;99.90;;;;;;5013857;28;20215;-70
2022/05/20 07:11:12;;;;;;;3.93;1.97;;;24.60;99.90;;;;;;5013836;28;20406;-69
2022/05/20 07:13:38;;;;;;;4.50;2.90;;;24.50;99.90;;;;;;5013778;28;20754;-70
2022/05/20 07:16:04;;;;;;;4.17;3.30;;;24.30;99.90;;;;;;5012651;28;20184;-70
2022/05/20 07:18:29;;;;;;;3.20;2.60;;;24.10;99.90;;;;;;5013678;28;20184;-70
2022/05/20 07:20:55;;;;;;;4.80;2.70;;;24.00;99.90;;;;;;5012190;28;20789;-69
2022/05/20 07:23:24;;;;;;;5.00;3.40;;;23.90;99.90;;;;;;5013616;28;20419;-70
2022/05/20 07:25:51;;;;;;;9.30;4.20;;;24.20;99.90;;;;;;5012366;28;20192;-70
2022/05/20 07:28:19;;;;;;;4.27;2.60;;;25.00;99.90;;;;;;5013574;28;20403;-70
2022/05/20 07:30:45;;;;;;;3.40;3.10;;;25.40;99.90;;;;;;5013292;28;20407;-70
2022/05/20 07:33:11;;;;;;;3.10;2.10;;;25.70;99.90;;;;;;5013476;28;20403;-70
2022/05/20 07:35:38;;;;;;;4.70;3.30;;;26.50;99.90;;;;;;5013349;28;20991;-70
2022/05/20 07:38:06;;;;;;;5.23;3.30;;;26.90;99.90;;;;;;5013569;28;20437;-70
2022/05/20 07:40:32;;;;;;;6.03;3.20;;;27.10;99.90;;;;;;5012913;28;20423;-69
2022/05/20 07:42:57;;;;;;;6.03;5.40;;;27.20;99.90;;;;;;5012073;28;20975;-69
2022/05/20 07:45:24;;;;;;;5.03;4.17;;;27.10;99.90;;;;;;5013205;28;20260;-70
2022/05/20 07:47:50;;;;;;;6.90;4.90;;;27.10;99.90;;;;;;5011867;28;20172;-69
2022/05/20 07:50:16;;;;;;;11.00;5.20;;;27.10;99.90;;;;;;5012793;28;20431;-69
2022/05/20 07:55:33;;;;;;;5.23;3.40;;;27.00;99.90;;;;;;5012996;28;20573;-70
2022/05/20 07:57:58;;;;;;;4.90;3.60;;;27.70;99.90;;;;;;5013155;28;20461;-70
2022/05/20 08:00:25;;;;;;;6.80;5.30;;;28.40;99.90;;;;;;5012741;28;20792;-70
2022/05/20 08:02:52;;;;;;;5.53;4.63;;;28.60;99.90;;;;;;5012304;28;20168;-70
2022/05/20 08:05:20;;;;;;;7.10;4.70;;;28.60;99.90;;;;;;5011676;28;20510;-70
2022/05/20 08:07:47;;;;;;;6.13;4.70;;;28.40;99.90;;;;;;5012941;28;20400;-70
2022/05/20 08:10:19;;;;;;;7.27;5.13;;;28.20;99.90;;;;;;5012547;28;20455;-70
2022/05/20 08:12:45;;;;;;;3.77;3.43;;;27.90;99.90;;;;;;5012881;28;20416;-70
2022/05/20 08:15:10;;;;;;;4.40;3.43;;;27.70;99.90;;;;;;5011448;28;20447;-70
2022/05/20 08:17:40;;;;;;;4.20;3.43;;;27.40;99.90;;;;;;5012606;28;20435;-70
2022/05/20 08:20:08;;;;;;;4.67;3.70;;;27.00;99.90;;;;;;5012515;28;20176;-70
2022/05/20 08:22:34;;;;;;;4.37;3.73;;;26.80;99.90;;;;;;5012584;28;20414;-71
2022/05/20 08:24:59;;;;;;;9.50;5.07;;;26.60;99.90;;;;;;5012595;28;20411;-70
2022/05/20 08:27:27;;;;;;;9.07;4.00;;;26.50;99.90;;;;;;5012563;28;20561;-70
2022/05/20 08:29:53;;;;;;;7.50;5.10;;;26.50;99.90;;;;;;5012492;28;20271;-69
2022/05/20 08:32:19;;;;;;;9.60;5.83;;;26.50;99.90;;;;;;5012380;28;20407;-69
2022/05/20 08:34:46;;;;;;;5.23;4.73;;;26.70;99.90;;;;;;5012368;28;20459;-70
2022/05/20 08:37:13;;;;;;;10.20;6.10;;;27.40;99.90;;;;;;5011270;28;20168;-70
2022/05/20 08:39:39;;;;;;;5.60;3.80;;;28.40;99.90;;;;;;5012333;28;20426;-70
2022/05/20 08:42:09;;;;;;;7.30;4.60;;;29.20;99.90;;;;;;5012059;28;20407;-70
2022/05/20 08:44:35;;;;;;;7.87;3.43;;;30.20;99.90;;;;;;5012423;28;20168;-70
2022/05/20 08:47:23;;;;;;;4.53;3.97;;;31.40;99.90;;;;;;5012385;28;20411;-70
2022/05/20 08:49:51;;;;;;;7.03;5.13;;;32.40;99.90;;;;;;5012315;28;20275;-70
2022/05/20 08:52:18;;;;;;;6.07;3.60;;;32.80;99.90;;;;;;5012048;28;20399;-69
2022/05/20 08:54:43;;;;;;;8.00;5.30;;;32.90;99.90;;;;;;5012085;28;20542;-70
2022/05/20 08:57:32;;;;;;;5.33;4.00;;;33.10;99.90;;;;;;5012180;28;20837;-70
2022/05/20 08:59:57;;;;;;;5.60;4.33;;;33.60;99.90;;;;;;5012130;28;20303;-70
2022/05/20 09:02:23;;;;;;;6.40;4.87;;;34.20;99.90;;;;;;5011923;28;20482;-70
2022/05/20 09:04:49;;;;;;;3.43;3.10;;;35.00;99.90;;;;;;5012166;28;20175;-70
2022/05/20 09:07:18;;;;;;;3.50;2.97;;;36.40;98.40;;;;;;5012028;28;20176;-70
2022/05/20 09:09:49;;;;;;;4.43;3.73;;;38.00;94.60;;;;;;5011710;28;20423;-71
2022/05/20 09:12:34;;;;;;;5.10;4.33;;;39.50;83.40;;;;;;5011523;28;20816;-71
2022/05/20 09:18:28;;;;;;;4.33;3.93;;;41.80;60.00;;;;;;5016243;28;20830;-71
2022/05/20 09:20:54;;;;;;;3.80;3.40;;;42.40;56.90;;;;;;5015357;28;20403;-71
2022/05/20 09:23:21;;;;;;;3.30;3.10;;;43.30;54.90;;;;;;5015585;28;20538;-71
2022/05/20 09:26:11;;;;;;;3.63;3.33;;;44.00;54.00;;;;;;5015695;28;20410;-71
2022/05/20 09:28:50;;;;;;;2.93;2.60;;;44.20;51.90;;;;;;5015529;28;20490;-71
2022/05/20 09:31:39;;;;;;;4.83;4.27;;;44.80;51.40;;;;;;5015730;28;20366;-71
2022/05/20 09:34:20;;;;;;;2.57;2.37;;;45.70;50.90;;;;;;5015422;28;20447;-70
2022/05/20 09:37:00;;;;;;;3.50;3.30;;;46.70;46.90;;;;;;5015582;28;20433;-71
2022/05/20 09:39:35;;;;;;;4.17;3.63;;;47.80;45.60;;;;;;5015299;28;20390;-71
2022/05/20 09:42:10;;;;;;;3.30;3.10;;;48.20;43.40;;;;;;5015297;28;20394;-71
2022/05/20 09:44:40;;;;;;;5.13;4.77;;;48.90;41.80;;;;;;5015310;28;20394;-71
2022/05/20 09:47:10;;;;;;;4.23;3.83;;;49.30;39.40;;;;;;5015221;28;20393;-71
2022/05/20 09:49:52;;;;;;;3.17;2.90;;;49.80;38.90;;;;;;5015122;28;20423;-71
2022/05/20 09:52:38;;;;;;;3.97;3.30;;;50.40;37.60;;;;;;5015047;28;20374;-69
2022/05/20 09:55:27;;;;;;;2.93;2.73;;;50.90;36.50;;;;;;4984758;28;20477;-69
2022/05/20 09:57:56;;;;;;;2.90;2.70;;;51.60;36.00;;;;;;5014927;28;20440;-69
2022/05/20 10:00:26;;;;;;;2.77;2.57;;;52.10;35.10;;;;;;5014782;28;20406;-69
2022/05/20 10:03:31;;;;;;;2.50;2.30;;;52.70;34.90;;;;;;5013705;28;20397;-69
2022/05/20 10:06:16;;;;;;;2.90;2.70;;;53.30;35.00;;;;;;5014840;28;20399;-69
2022/05/20 10:08:47;;;;;;;4.47;4.07;;;54.10;34.40;;;;;;5014802;28;20526;-69
2022/05/20 10:11:19;;;;;;;3.23;3.03;;;54.80;33.50;;;;;;5014596;28;20983;-69
2022/05/20 10:14:06;;;;;;;3.13;2.93;;;55.30;32.60;;;;;;5013426;28;20418;-69
2022/05/20 10:16:39;;;;;;;2.90;2.80;;;55.80;32.00;;;;;;5014785;28;20377;-69
2022/05/20 10:19:48;;;;;;;2.50;2.40;;;56.40;31.20;;;;;;5014633;28;20478;-69
2022/05/20 10:22:19;;;;;;;4.17;3.87;;;56.90;30.80;;;;;;4961772;28;20450;-69
2022/05/20 10:24:50;;;;;;;3.47;3.27;;;56.90;29.40;;;;;;5013626;28;20410;-69
2022/05/20 10:27:33;;;;;;;2.87;2.67;;;56.30;29.10;;;;;;5012334;28;20454;-69
2022/05/20 10:33:38;;;;;;;2.80;2.60;;;54.30;29.50;;;;;;5014365;28;20465;-69
2022/05/20 10:36:16;;;;;;;2.40;2.23;;;53.30;30.00;;;;;;5012777;28;20394;-69
2022/05/20 10:38:45;;;;;;;2.27;2.17;;;53.10;30.20;;;;;;5013929;28;20449;-69
2022/05/20 10:41:16;;;;;;;2.57;2.47;;;53.80;30.80;;;;;;5013702;28;20407;-69
2022/05/20 10:50:12;;;;;;;3.37;3.17;;;54.30;30.50;;;;;;5013645;28;20404;-68
2022/05/20 10:53:15;;;;;;;2.97;2.77;;;53.20;29.50;;;;;;5013685;28;20373;-68
2022/05/20 10:56:03;;;;;;;2.70;2.30;;;51.40;29.80;;;;;;5010759;28;20972;-68
2022/05/20 10:58:53;;;;;;;2.40;2.10;;;49.20;30.80;;;;;;5013705;28;20705;-68
2022/05/20 11:01:42;;;;;;;2.70;2.50;;;47.10;32.30;;;;;;5013655;28;20412;-68
2022/05/20 11:04:26;;;;;;;2.80;2.17;;;45.10;34.00;;;;;;5013817;28;20655;-68
2022/05/20 11:07:09;;;;;;;2.80;2.60;;;43.30;35.70;;;;;;5013786;28;20395;-68
2022/05/20 11:10:04;;;;;;;2.30;2.10;;;42.00;37.20;;;;;;5013574;28;20408;-68
2022/05/20 11:12:33;;;;;;;3.33;2.80;;;40.80;38.60;;;;;;5013341;28;20395;-68
2022/05/20 11:15:24;;;;;;;2.20;2.00;;;39.70;40.30;;;;;;5013603;28;20545;-70
2022/05/20 11:18:14;;;;;;;3.03;2.20;;;38.80;41.40;;;;;;5012234;28;20397;-70
2022/05/20 11:20:46;;;;;;;3.73;2.77;;;38.00;42.70;;;;;;5011938;28;20419;-69
2022/05/20 11:23:23;;;;;;;2.00;1.80;;;37.10;44.80;;;;;;5012105;28;20415;-70
2022/05/20 11:25:52;;;;;;;2.30;2.10;;;36.30;45.80;;;;;;5013402;28;20506;-69
2022/05/20 11:28:34;;;;;;;3.10;2.90;;;35.60;47.30;;;;;;5013288;28;20482;-69
2022/05/20 11:31:19;;;;;;;2.57;2.37;;;34.90;48.70;;;;;;5012708;28;20395;-69
2022/05/20 11:34:03;;;;;;;2.90;2.70;;;34.30;50.80;;;;;;5013169;28;20407;-69
2022/05/20 11:36:38;;;;;;;5.27;3.73;;;33.90;53.00;;;;;;5012165;28;20396;-69
2022/05/20 11:39:32;;;;;;;1.93;1.83;;;33.80;55.20;;;;;;5012902;28;20844;-69
2022/05/20 11:42:24;;;;;;;2.70;2.40;;;33.90;56.70;;;;;;5012931;28;20407;-69
2022/05/20 11:44:55;;;;;;;3.10;2.40;;;34.40;59.10;;;;;;5013191;28;20399;-69
2022/05/20 11:47:50;;;;;;;2.00;1.90;;;36.30;58.80;;;;;;5013012;28;20939;-69
2022/05/20 11:50:44;;;;;;;2.13;1.93;;;37.10;56.00;;;;;;5012467;28;20519;-70
2022/05/20 11:53:18;;;;;;;2.00;1.90;;;37.10;53.50;;;;;;5012806;28;20461;-70
2022/05/20 11:55:56;;;;;;;2.23;2.13;;;36.70;52.90;;;;;;5012696;28;20795;-70
2022/05/20 11:58:31;;;;;;;2.37;2.20;;;36.20;53.30;;;;;;5012515;28;20402;-70
2022/05/20 12:00:58;;;;;;;2.73;2.53;;;35.70;53.40;;;;;;5012698;28;20407;-70
2022/05/20 12:04:07;;;;;;;2.07;1.93;;;35.20;53.90;;;;;;5012657;28;20395;-70
2022/05/20 12:06:24;;;;;;;2.23;2.03;;;34.50;54.70;;;;;;5012605;28;20495;-69
2022/05/20 12:08:56;;;;;;;3.70;3.40;;;33.80;56.00;;;;;;5012615;28;20470;-69
2022/05/20 12:11:31;;;;;;;3.17;2.33;;;33.30;57.80;;;;;;5011933;28;20744;-70
2022/05/20 12:14:05;;;;;;;3.10;2.80;;;32.70;59.40;;;;;;5012600;28;20505;-70
2022/05/20 12:16:33;;;;;;;2.20;2.10;;;32.10;61.60;;;;;;5012473;28;20409;-69
2022/05/20 12:24:47;;;;;;;2.53;1.90;;;30.40;74.20;;;;;;5012416;28;20398;-69
2022/05/20 12:27:24;;;;;;;3.07;2.73;;;29.80;83.20;;;;;;5012373;28;20407;-69
2022/05/20 12:30:09;;;;;;;1.80;1.60;;;29.30;91.80;;;;;;5012052;28;20430;-69
2022/05/20 12:32:34;;;;;;;2.13;1.90;;;29.00;99.20;;;;;;5011955;28;20473;-69
2022/05/20 12:35:14;;;;;;;2.63;2.43;;;28.50;99.90;;;;;;5010686;28;20483;-69
2022/05/20 12:37:42;;;;;;;2.20;2.03;;;28.10;99.90;;;;;;5012260;28;20219;-68
2022/05/20 12:40:40;;;;;;;2.33;2.13;;;27.60;99.90;;;;;;5012099;28;20829;-67
2022/05/20 12:43:10;;;;;;;3.60;2.80;;;27.00;99.90;;;;;;5003686;28;20418;-66
2022/05/20 12:45:51;;;;;;;2.27;2.07;;;26.40;99.90;;;;;;5015032;28;20414;-67
2022/05/20 12:48:18;;;;;;;2.20;2.03;;;25.90;99.90;;;;;;5015248;28;20427;-67
2022/05/20 12:50:56;;;;;;;2.43;2.23;;;25.40;99.90;;;;;;5014750;28;20407;-66
2022/05/20 12:53:30;;;;;;;4.83;2.53;;;25.00;99.90;;;;;;5015310;28;20500;-67
2022/05/20 12:55:56;;;;;;;2.17;2.00;;;24.70;99.90;;;;;;5015345;28;20490;-66
2022/05/20 12:58:26;;;;;;;2.90;2.70;;;24.40;99.90;;;;;;5014677;28;20395;-67
2022/05/20 13:00:53;;;;;;;3.90;2.77;;;24.20;99.90;;;;;;5014756;28;20166;-68
2022/05/20 13:03:25;;;;;;;4.37;2.17;;;24.00;99.90;;;;;;5015047;28;20492;-68
2022/05/20 13:05:56;;;;;;;2.40;2.20;;;23.80;99.90;;;;;;5014759;28;20479;-67
2022/05/20 13:08:26;;;;;;;3.40;2.73;;;23.70;99.90;;;;;;5014652;28;20775;-67
2022/05/20 13:10:51;;;;;;;4.90;2.20;;;23.60;99.90;;;;;;5014128;28;20482;-67
2022/05/20 13:13:22;;;;;;;3.73;2.30;;;23.50;99.90;;;;;;5014329;28;20446;-67
2022/05/20 13:15:51;;;;;;;2.10;1.70;;;23.60;99.90;;;;;;5013113;28;20196;-69
2022/05/20 13:18:27;;;;;;;3.83;2.93;;;23.70;99.90;;;;;;5014369;28;20506;-67
2022/05/20 13:20:57;;;;;;;2.93;2.73;;;23.90;99.90;;;;;;5012752;28;20803;-66
2022/05/20 13:23:46;;;;;;;1.47;1.17;;;24.00;99.90;;;;;;5014613;28;20403;-67
2022/05/20 13:26:24;;;;;;;1.97;1.63;;;24.10;99.90;;;;;;5014231;28;20426;-67
2022/05/20 13:28:50;;;;;;;3.57;2.70;;;24.30;99.90;;;;;;5013668;28;21163;-67
2022/05/20 13:31:24;;;;;;;1.93;1.83;;;24.50;99.90;;;;;;5013231;28;20403;-67
2022/05/20 13:33:50;;;;;;;2.43;2.20;;;24.70;99.90;;;;;;5013372;28;20494;-67
2022/05/20 13:36:21;;;;;;;2.17;1.83;;;24.90;99.90;;;;;;5012954;28;20395;-68
2022/05/20 13:38:54;;;;;;;2.40;2.27;;;25.20;99.90;;;;;;5012358;28;20514;-67
2022/05/20 13:41:23;;;;;;;4.73;1.77;;;25.30;99.90;;;;;;5010726;28;20549;-69
2022/05/20 13:43:52;;;;;;;1.80;1.70;;;25.40;99.90;;;;;;5012133;28;20399;-67
2022/05/20 13:49:15;;;;;;;1.60;1.33;;;25.50;99.90;;;;;;5012039;28;20426;-67
2022/05/20 13:51:57;;;;;;;1.93;1.63;;;25.50;99.90;;;;;;5011216;28;20979;-67
2022/05/20 13:54:47;;;;;;;2.10;1.97;;;25.40;99.90;;;;;;5012031;28;20457;-69